Ferry Katsuragi — JI3611 — position and weather

sailwx.info

Track history (hours):
 
Tides and Currents Weather Stations Pressure Air Temp Water Temp Dewpoint Dewpoint Depression Visibility Wind Speed Wind Dir Waves Ship Positions

Ferry Katsuragi

Last reported at 2016-Jun-26 19:05 UTC. Time now 2016-Jun-26 21:00 UTC.
Position N 34°07' E 134°46'.

Length 108 m; draft 4 m.

Type: Passenger vessel. MMSI: 431301245.

Date/timePositionNaut miles runAvg speedWind from/ knotsBaromVisibWave heightAir tempDewpointWater temp
2016-Jun-26 19:05N 34°07' E 134°46'914.1
2016-Jun-26 18:29N 34°10' E 134°56'1111.8
2016-Jun-26 17:33N 34°13' E 135°09'0 0.0
2016-Jun-26 16:33N 34°13' E 135°09'0 0.0
2016-Jun-26 15:33N 34°13' E 135°09'6 5.7
2016-Jun-26 14:33N 34°11' E 135°02'14 4.6
2016-Jun-26 11:33N 34°07' E 134°47'1515.4
2016-Jun-26 10:34N 34°12' E 135°04'4 4.1
2016-Jun-26 09:33N 34°13' E 135°09'21 6.0
2016-Jun-26 06:08N 34°06' E 134°45'1214.8
2016-Jun-26 05:20N 34°10' E 134°59'911.3
2016-Jun-26 04:34N 34°13' E 135°09'6 6.3
2016-Jun-26 03:34N 34°11' E 135°01'4 1.3
2016-Jun-26 00:14N 34°09' E 134°57'1014.9
2016-Jun-25 23:33N 34°13' E 135°08'2 2.2
2016-Jun-25 22:33N 34°13' E 135°05'8 1.9
2016-Jun-25 18:27N 34°10' E 134°57'1011.4
2016-Jun-25 17:33N 34°13' E 135°09'0 0.0
2016-Jun-25 16:33N 34°13' E 135°09'0 0.0
2016-Jun-25 15:33N 34°13' E 135°09'7 7.1
2016-Jun-25 14:33N 34°11' E 135°00'10 3.1
2016-Jun-25 11:25N 34°07' E 134°50'1314.7
2016-Jun-25 10:33N 34°12' E 135°04'4 4.2
2016-Jun-25 09:34N 34°13' E 135°09'21 6.2
2016-Jun-25 06:12N 34°05' E 134°45'2112.7
2016-Jun-25 04:33N 34°13' E 135°09'7 6.7
2016-Jun-25 03:32N 34°11' E 135°01'3 0.8
2016-Jun-25 00:07N 34°09' E 134°59'815.2
2016-Jun-24 23:33N 34°13' E 135°08'2 2.0
2016-Jun-24 22:33N 34°13' E 135°05'19 6.0
2016-Jun-24 19:18N 34°04' E 134°44'1013.8
2016-Jun-24 18:33N 34°08' E 134°56'1211.7
2016-Jun-24 17:33N 34°13' E 135°09'0 0.0
2016-Jun-24 16:33N 34°13' E 135°09'0 0.0
2016-Jun-24 15:33N 34°13' E 135°09'7 7.0
2016-Jun-24 14:33N 34°12' E 135°00'11 3.5
2016-Jun-24 11:30N 34°08' E 134°48'1314.3
2016-Jun-24 10:33N 34°12' E 135°04'4 4.1
2016-Jun-24 09:33N 34°13' E 135°09'0 0.0
2016-Jun-24 04:33N 34°13' E 135°09'6 5.9
2016-Jun-24 03:33N 34°12' E 135°02'7 2.0
2016-Jun-24 00:19N 34°09' E 134°55'1215.6
2016-Jun-23 23:34N 34°13' E 135°08'2 2.0
2016-Jun-23 22:33N 34°14' E 135°06'19 5.5
2016-Jun-23 19:10N 34°06' E 134°45'1014.1
2016-Jun-23 18:26N 34°09' E 134°57'1011.8
2016-Jun-23 17:34N 34°13' E 135°09'0 0.0
2016-Jun-23 16:34N 34°13' E 135°09'0 0.0
2016-Jun-23 15:34N 34°13' E 135°09'7 6.7
2016-Jun-23 14:33N 34°10' E 135°01'11 3.4
2016-Jun-23 11:27N 34°07' E 134°49'1314.9
2016-Jun-23 10:34N 34°12' E 135°04'4 4.0
2016-Jun-23 09:33N 34°13' E 135°09'10 2.6
2016-Jun-23 05:27N 34°09' E 134°57'1011.6
2016-Jun-23 04:33N 34°13' E 135°09'6 6.0
2016-Jun-23 03:33N 34°11' E 135°02'5 1.4
2016-Jun-23 00:14N 34°09' E 134°57'1015.0
2016-Jun-22 23:33N 34°13' E 135°08'1 1.5
2016-Jun-22 22:33N 34°13' E 135°07'19 5.8
2016-Jun-22 19:14N 34°05' E 134°45'1313.7
2016-Jun-22 18:18N 34°11' E 134°59'811.0
2016-Jun-22 17:34N 34°13' E 135°09'0 0.0
2016-Jun-22 16:33N 34°13' E 135°09'0 0.0
2016-Jun-22 15:33N 34°13' E 135°09'6 6.4
2016-Jun-22 14:33N 34°12' E 135°01'2 0.6
2016-Jun-22 10:34N 34°12' E 135°04'4 3.7
2016-Jun-22 09:33N 34°13' E 135°08'20 6.0
2016-Jun-22 06:11N 34°06' E 134°45'913.9
2016-Jun-22 05:33N 34°09' E 134°55'1211.9
2016-Jun-22 04:34N 34°13' E 135°09'6 6.2
2016-Jun-22 03:34N 34°11' E 135°01'5 1.7
2016-Jun-22 00:19N 34°09' E 134°56'1115.2
2016-Jun-21 23:33N 34°13' E 135°08'2 1.5
2016-Jun-21 22:33N 34°13' E 135°06'7 1.5
2016-Jun-21 18:18N 34°11' E 134°59'811.1
2016-Jun-21 17:33N 34°13' E 135°09'0 0.0
2016-Jun-21 16:33N 34°13' E 135°09'0 0.0
2016-Jun-21 15:33N 34°13' E 135°09'6 5.7
2016-Jun-21 14:33N 34°11' E 135°02'2 0.5
2016-Jun-21 10:33N 34°12' E 135°04'4 3.9
2016-Jun-21 09:33N 34°13' E 135°09'0 0.0
2016-Jun-21 04:34N 34°13' E 135°09'6 6.4
2016-Jun-21 03:33N 34°11' E 135°01'5 1.4
2016-Jun-21 00:15N 34°10' E 134°56'1115.4
2016-Jun-20 23:34N 34°13' E 135°08'2 1.7
2016-Jun-20 22:33N 34°13' E 135°06'23 7.5
2016-Jun-20 19:30N 34°04' E 134°41'1413.8
2016-Jun-20 18:27N 34°10' E 134°57'1011.7
2016-Jun-20 17:33N 34°13' E 135°09'0 0.0
2016-Jun-20 16:33N 34°13' E 135°09'0 0.0
2016-Jun-20 15:33N 34°13' E 135°09'6 6.1
2016-Jun-20 14:34N 34°11' E 135°02'11 3.7
2016-Jun-20 11:29N 34°07' E 134°49'1314.5
2016-Jun-20 10:33N 34°12' E 135°04'4 3.8
2016-Jun-20 09:33N 34°13' E 135°08'8 1.9
2016-Jun-20 05:21N 34°10' E 134°59'910.8
2016-Jun-20 04:33N 34°13' E 135°09'7 6.9
2016-Jun-20 03:32N 34°12' E 135°00'7 1.7
2016-Jun-19 23:33N 34°13' E 135°08'2 2.0
2016-Jun-19 22:33N 34°13' E 135°06'18 5.4
2016-Jun-19 19:11N 34°06' E 134°45'1014.0
2016-Jun-19 18:30N 34°09' E 134°56'1111.6
2016-Jun-19 17:33N 34°13' E 135°09'0 0.0
2016-Jun-19 16:33N 34°13' E 135°09'0 0.0
2016-Jun-19 15:33N 34°13' E 135°09'7 6.9
2016-Jun-19 14:33N 34°11' E 135°01'10 3.1
2016-Jun-19 11:25N 34°08' E 134°49'1314.5
2016-Jun-19 10:33N 34°12' E 135°04'4 4.1
2016-Jun-19 09:34N 34°13' E 135°09'12 2.9
2016-Jun-19 05:31N 34°09' E 134°55'1212.4
2016-Jun-19 04:33N 34°13' E 135°09'7 6.6
2016-Jun-19 03:33N 34°11' E 135°01'2 0.7
2016-Jun-19 00:09N 34°10' E 134°58'914.9
2016-Jun-18 23:33N 34°13' E 135°08'2 1.6
2016-Jun-18 22:33N 34°13' E 135°06'20 6.3
2016-Jun-18 19:18N 34°05' E 134°43'1214.2
2016-Jun-18 18:27N 34°10' E 134°57'1111.7
2016-Jun-18 17:34N 34°13' E 135°09'0 0.0
2016-Jun-18 16:33N 34°13' E 135°09'0 0.0
2016-Jun-18 15:33N 34°13' E 135°09'6 6.4
2016-Jun-18 14:33N 34°12' E 135°01'12 3.8
2016-Jun-18 11:31N 34°07' E 134°48'1414.4
2016-Jun-18 10:33N 34°12' E 135°04'4 4.0
2016-Jun-18 09:33N 34°13' E 135°09'20 5.7
2016-Jun-18 06:05N 34°06' E 134°46'714.2
2016-Jun-18 05:33N 34°09' E 134°54'1312.6
2016-Jun-18 04:33N 34°13' E 135°09'8 7.2
2016-Jun-18 03:28N 34°10' E 134°60'7 2.2
2016-Jun-18 00:28N 34°09' E 134°52'1415.4
2016-Jun-17 23:34N 34°13' E 135°08'3 2.6
2016-Jun-17 22:33N 34°13' E 135°05'17 5.1
2016-Jun-17 19:12N 34°06' E 134°46'1013.8
2016-Jun-17 18:29N 34°10' E 134°57'1011.3
2016-Jun-17 17:33N 34°13' E 135°09'0 0.0
2016-Jun-17 16:33N 34°13' E 135°09'0 0.0
2016-Jun-17 15:33N 34°13' E 135°09'8 7.9
2016-Jun-17 14:30N 34°10' E 134°59'4 1.0
2016-Jun-17 10:33N 34°12' E 135°04'4 4.1
2016-Jun-17 09:33N 34°13' E 135°09'0 0.0
2016-Jun-17 04:33N 34°13' E 135°09'7 6.8
2016-Jun-17 03:32N 34°10' E 135°01'4 1.3
2016-Jun-17 00:18N 34°09' E 134°56'1115.2
2016-Jun-16 23:33N 34°13' E 135°09'2 2.0
2016-Jun-16 22:33N 34°13' E 135°06'20 5.8
2016-Jun-16 19:12N 34°05' E 134°45'  
Track history (hours):
 
Tides and Currents Weather Stations Pressure Air Temp Water Temp Dewpoint Dewpoint Depression Visibility Wind Speed Wind Dir Waves Ship Positions

Ferry Katsuragi

Last reported at 2016-Jun-26 19:05 UTC. Time now 2016-Jun-26 21:00 UTC.
Position N 34°07' E 134°46'.

Length 108 m; draft 4 m.

Type: Passenger vessel. MMSI: 431301245.

Date/timePositionNaut miles runAvg speedWind from/ knotsBaromVisibWave heightAir tempDewpointWater temp
2016-Jun-26 19:05N 34°07' E 134°46'914.1
2016-Jun-26 18:29N 34°10' E 134°56'1111.8
2016-Jun-26 17:33N 34°13' E 135°09'0 0.0
2016-Jun-26 16:33N 34°13' E 135°09'0 0.0
2016-Jun-26 15:33N 34°13' E 135°09'6 5.7
2016-Jun-26 14:33N 34°11' E 135°02'14 4.6
2016-Jun-26 11:33N 34°07' E 134°47'1515.4
2016-Jun-26 10:34N 34°12' E 135°04'4 4.1
2016-Jun-26 09:33N 34°13' E 135°09'21 6.0
2016-Jun-26 06:08N 34°06' E 134°45'1214.8
2016-Jun-26 05:20N 34°10' E 134°59'911.3
2016-Jun-26 04:34N 34°13' E 135°09'6 6.3
2016-Jun-26 03:34N 34°11' E 135°01'4 1.3
2016-Jun-26 00:14N 34°09' E 134°57'1014.9
2016-Jun-25 23:33N 34°13' E 135°08'2 2.2
2016-Jun-25 22:33N 34°13' E 135°05'8 1.9
2016-Jun-25 18:27N 34°10' E 134°57'1011.4
2016-Jun-25 17:33N 34°13' E 135°09'0 0.0
2016-Jun-25 16:33N 34°13' E 135°09'0 0.0
2016-Jun-25 15:33N 34°13' E 135°09'7 7.1
2016-Jun-25 14:33N 34°11' E 135°00'10 3.1
2016-Jun-25 11:25N 34°07' E 134°50'1314.7
2016-Jun-25 10:33N 34°12' E 135°04'4 4.2
2016-Jun-25 09:34N 34°13' E 135°09'21 6.2
2016-Jun-25 06:12N 34°05' E 134°45'2112.7
2016-Jun-25 04:33N 34°13' E 135°09'7 6.7
2016-Jun-25 03:32N 34°11' E 135°01'3 0.8
2016-Jun-25 00:07N 34°09' E 134°59'815.2
2016-Jun-24 23:33N 34°13' E 135°08'2 2.0
2016-Jun-24 22:33N 34°13' E 135°05'19 6.0
2016-Jun-24 19:18N 34°04' E 134°44'1013.8
2016-Jun-24 18:33N 34°08' E 134°56'1211.7
2016-Jun-24 17:33N 34°13' E 135°09'0 0.0
2016-Jun-24 16:33N 34°13' E 135°09'0 0.0
2016-Jun-24 15:33N 34°13' E 135°09'7 7.0
2016-Jun-24 14:33N 34°12' E 135°00'11 3.5
2016-Jun-24 11:30N 34°08' E 134°48'1314.3
2016-Jun-24 10:33N 34°12' E 135°04'4 4.1
2016-Jun-24 09:33N 34°13' E 135°09'0 0.0
2016-Jun-24 04:33N 34°13' E 135°09'6 5.9
2016-Jun-24 03:33N 34°12' E 135°02'7 2.0
2016-Jun-24 00:19N 34°09' E 134°55'1215.6
2016-Jun-23 23:34N 34°13' E 135°08'2 2.0
2016-Jun-23 22:33N 34°14' E 135°06'19 5.5
2016-Jun-23 19:10N 34°06' E 134°45'1014.1
2016-Jun-23 18:26N 34°09' E 134°57'1011.8
2016-Jun-23 17:34N 34°13' E 135°09'0 0.0
2016-Jun-23 16:34N 34°13' E 135°09'0 0.0
2016-Jun-23 15:34N 34°13' E 135°09'7 6.7
2016-Jun-23 14:33N 34°10' E 135°01'11 3.4
2016-Jun-23 11:27N 34°07' E 134°49'1314.9
2016-Jun-23 10:34N 34°12' E 135°04'4 4.0
2016-Jun-23 09:33N 34°13' E 135°09'10 2.6
2016-Jun-23 05:27N 34°09' E 134°57'1011.6
2016-Jun-23 04:33N 34°13' E 135°09'6 6.0
2016-Jun-23 03:33N 34°11' E 135°02'5 1.4
2016-Jun-23 00:14N 34°09' E 134°57'1015.0
2016-Jun-22 23:33N 34°13' E 135°08'1 1.5
2016-Jun-22 22:33N 34°13' E 135°07'19 5.8
2016-Jun-22 19:14N 34°05' E 134°45'1313.7
2016-Jun-22 18:18N 34°11' E 134°59'811.0
2016-Jun-22 17:34N 34°13' E 135°09'0 0.0
2016-Jun-22 16:33N 34°13' E 135°09'0 0.0
2016-Jun-22 15:33N 34°13' E 135°09'6 6.4
2016-Jun-22 14:33N 34°12' E 135°01'2 0.6
2016-Jun-22 10:34N 34°12' E 135°04'4 3.7
2016-Jun-22 09:33N 34°13' E 135°08'20 6.0
2016-Jun-22 06:11N 34°06' E 134°45'913.9
2016-Jun-22 05:33N 34°09' E 134°55'1211.9
2016-Jun-22 04:34N 34°13' E 135°09'6 6.2
2016-Jun-22 03:34N 34°11' E 135°01'5 1.7
2016-Jun-22 00:19N 34°09' E 134°56'1115.2
2016-Jun-21 23:33N 34°13' E 135°08'2 1.5
2016-Jun-21 22:33N 34°13' E 135°06'7 1.5
2016-Jun-21 18:18N 34°11' E 134°59'811.1
2016-Jun-21 17:33N 34°13' E 135°09'0 0.0
2016-Jun-21 16:33N 34°13' E 135°09'0 0.0
2016-Jun-21 15:33N 34°13' E 135°09'6 5.7
2016-Jun-21 14:33N 34°11' E 135°02'2 0.5
2016-Jun-21 10:33N 34°12' E 135°04'4 3.9
2016-Jun-21 09:33N 34°13' E 135°09'0 0.0
2016-Jun-21 04:34N 34°13' E 135°09'6 6.4
2016-Jun-21 03:33N 34°11' E 135°01'5 1.4
2016-Jun-21 00:15N 34°10' E 134°56'1115.4
2016-Jun-20 23:34N 34°13' E 135°08'2 1.7
2016-Jun-20 22:33N 34°13' E 135°06'23 7.5
2016-Jun-20 19:30N 34°04' E 134°41'1413.8
2016-Jun-20 18:27N 34°10' E 134°57'1011.7
2016-Jun-20 17:33N 34°13' E 135°09'0 0.0
2016-Jun-20 16:33N 34°13' E 135°09'0 0.0
2016-Jun-20 15:33N 34°13' E 135°09'6 6.1
2016-Jun-20 14:34N 34°11' E 135°02'11 3.7
2016-Jun-20 11:29N 34°07' E 134°49'1314.5
2016-Jun-20 10:33N 34°12' E 135°04'4 3.8
2016-Jun-20 09:33N 34°13' E 135°08'8 1.9
2016-Jun-20 05:21N 34°10' E 134°59'910.8
2016-Jun-20 04:33N 34°13' E 135°09'7 6.9
2016-Jun-20 03:32N 34°12' E 135°00'7 1.7
2016-Jun-19 23:33N 34°13' E 135°08'2 2.0
2016-Jun-19 22:33N 34°13' E 135°06'18 5.4
2016-Jun-19 19:11N 34°06' E 134°45'1014.0
2016-Jun-19 18:30N 34°09' E 134°56'1111.6
2016-Jun-19 17:33N 34°13' E 135°09'0 0.0
2016-Jun-19 16:33N 34°13' E 135°09'0 0.0
2016-Jun-19 15:33N 34°13' E 135°09'7 6.9
2016-Jun-19 14:33N 34°11' E 135°01'10 3.1
2016-Jun-19 11:25N 34°08' E 134°49'1314.5
2016-Jun-19 10:33N 34°12' E 135°04'4 4.1
2016-Jun-19 09:34N 34°13' E 135°09'12 2.9
2016-Jun-19 05:31N 34°09' E 134°55'1212.4
2016-Jun-19 04:33N 34°13' E 135°09'7 6.6
2016-Jun-19 03:33N 34°11' E 135°01'2 0.7
2016-Jun-19 00:09N 34°10' E 134°58'914.9
2016-Jun-18 23:33N 34°13' E 135°08'2 1.6
2016-Jun-18 22:33N 34°13' E 135°06'20 6.3
2016-Jun-18 19:18N 34°05' E 134°43'1214.2
2016-Jun-18 18:27N 34°10' E 134°57'1111.7
2016-Jun-18 17:34N 34°13' E 135°09'0 0.0
2016-Jun-18 16:33N 34°13' E 135°09'0 0.0
2016-Jun-18 15:33N 34°13' E 135°09'6 6.4
2016-Jun-18 14:33N 34°12' E 135°01'12 3.8
2016-Jun-18 11:31N 34°07' E 134°48'1414.4
2016-Jun-18 10:33N 34°12' E 135°04'4 4.0
2016-Jun-18 09:33N 34°13' E 135°09'20 5.7
2016-Jun-18 06:05N 34°06' E 134°46'714.2
2016-Jun-18 05:33N 34°09' E 134°54'1312.6
2016-Jun-18 04:33N 34°13' E 135°09'8 7.2
2016-Jun-18 03:28N 34°10' E 134°60'7 2.2
2016-Jun-18 00:28N 34°09' E 134°52'1415.4
2016-Jun-17 23:34N 34°13' E 135°08'3 2.6
2016-Jun-17 22:33N 34°13' E 135°05'17 5.1
2016-Jun-17 19:12N 34°06' E 134°46'1013.8
2016-Jun-17 18:29N 34°10' E 134°57'1011.3
2016-Jun-17 17:33N 34°13' E 135°09'0 0.0
2016-Jun-17 16:33N 34°13' E 135°09'0 0.0
2016-Jun-17 15:33N 34°13' E 135°09'8 7.9
2016-Jun-17 14:30N 34°10' E 134°59'4 1.0
2016-Jun-17 10:33N 34°12' E 135°04'4 4.1
2016-Jun-17 09:33N 34°13' E 135°09'0 0.0
2016-Jun-17 04:33N 34°13' E 135°09'7 6.8
2016-Jun-17 03:32N 34°10' E 135°01'4 1.3
2016-Jun-17 00:18N 34°09' E 134°56'1115.2
2016-Jun-16 23:33N 34°13' E 135°09'2 2.0
2016-Jun-16 22:33N 34°13' E 135°06'20 5.8
2016-Jun-16 19:12N 34°05' E 134°45'  

Dump ship's entire track history